Time;durP1;ratioP1;P1;durP2;ratioP2;P2;SDS_P1;SDS_P2;PMS_P1;PMS_P2;Temp;Humidity;BMP_temperature;BMP_pressure;BME280_temperature;BME280_humidity;BME280_pressure;Samples;Min_cycle;Max_cycle;Signal;HPM_P1;HPM_P2
2023/09/09 00:00:32;;;;;;;10.60;8.60;;;20.00;99.90;;;;;;4989624;28;20406;-78
2023/09/09 00:02:58;;;;;;;9.45;8.45;;;20.00;99.90;;;;;;4976692;28;20069;-78
2023/09/09 00:05:28;;;;;;;9.98;7.85;;;20.10;99.90;;;;;;4992656;28;20047;-78
2023/09/09 00:07:53;;;;;;;7.88;7.07;;;20.00;99.90;;;;;;4991716;28;20046;-79
2023/09/09 00:10:19;;;;;;;7.85;7.03;;;20.00;99.90;;;;;;4991006;28;20053;-79
2023/09/09 00:12:44;;;;;;;7.80;6.10;;;20.00;99.90;;;;;;4993230;28;20042;-79
2023/09/09 00:15:10;;;;;;;9.10;5.40;;;19.90;99.90;;;;;;4992729;28;20042;-79
2023/09/09 00:17:35;;;;;;;8.00;5.63;;;19.90;99.90;;;;;;4976177;28;20030;-78
2023/09/09 00:20:01;;;;;;;7.10;6.35;;;19.90;99.90;;;;;;4992653;28;20189;-79
2023/09/09 00:22:27;;;;;;;8.40;6.50;;;19.80;99.90;;;;;;4993469;28;20484;-79
2023/09/09 00:24:52;;;;;;;9.40;7.82;;;19.90;99.90;;;;;;4991857;28;20046;-79
2023/09/09 00:27:18;;;;;;;8.57;7.68;;;19.80;99.90;;;;;;4993086;28;20387;-79
2023/09/09 00:29:43;;;;;;;9.65;7.90;;;19.70;99.90;;;;;;4991353;28;20038;-79
2023/09/09 00:32:09;;;;;;;10.38;7.97;;;19.70;99.90;;;;;;4991288;28;20042;-79
2023/09/09 00:34:34;;;;;;;10.10;8.90;;;19.70;99.90;;;;;;4989384;28;20053;-79
2023/09/09 00:37:00;;;;;;;11.43;8.30;;;19.70;99.90;;;;;;4990980;28;20038;-78
2023/09/09 00:39:25;;;;;;;8.90;8.00;;;19.60;99.90;;;;;;4988985;28;20592;-79
2023/09/09 00:41:51;;;;;;;10.73;8.45;;;19.60;99.90;;;;;;4990614;28;20039;-78
2023/09/09 00:44:16;;;;;;;10.05;8.73;;;19.60;99.90;;;;;;4991537;28;20522;-79
2023/09/09 00:46:43;;;;;;;9.90;8.70;;;19.50;99.90;;;;;;4990590;28;20113;-78
2023/09/09 00:49:09;;;;;;;9.07;8.20;;;19.30;99.90;;;;;;4988253;28;20066;-78
2023/09/09 00:51:37;;;;;;;10.93;8.85;;;19.40;99.90;;;;;;4975273;28;20061;-78
2023/09/09 00:54:03;;;;;;;10.80;9.35;;;19.30;99.90;;;;;;4989255;28;20042;-78
2023/09/09 00:56:32;;;;;;;11.20;9.60;;;19.40;99.90;;;;;;4990608;28;20035;-79
2023/09/09 00:58:58;;;;;;;10.38;9.30;;;19.40;99.90;;;;;;4990412;28;20046;-79
2023/09/09 01:01:24;;;;;;;10.73;9.40;;;19.40;99.90;;;;;;4973593;28;20186;-79
2023/09/09 01:03:53;;;;;;;14.43;10.30;;;19.30;99.90;;;;;;4972721;28;20041;-79
2023/09/09 01:06:22;;;;;;;12.10;10.15;;;19.30;99.90;;;;;;4990878;28;20406;-78
2023/09/09 01:08:48;;;;;;;12.60;10.10;;;19.30;99.90;;;;;;4982541;28;20170;-79
2023/09/09 01:11:14;;;;;;;12.55;10.15;;;19.40;99.90;;;;;;4990407;28;20057;-78
2023/09/09 01:13:40;;;;;;;12.80;10.68;;;19.30;99.90;;;;;;4990681;28;20042;-78
2023/09/09 01:16:06;;;;;;;10.52;9.32;;;19.20;99.90;;;;;;4990642;28;20050;-78
2023/09/09 01:18:34;;;;;;;10.63;9.52;;;19.20;99.90;;;;;;4992126;28;20034;-78
2023/09/09 01:21:08;;;;;;;12.48;9.75;;;19.20;99.90;;;;;;4989173;28;20046;-79
2023/09/09 01:23:34;;;;;;;14.07;10.55;;;19.20;99.90;;;;;;4974550;28;20074;-79
2023/09/09 01:25:59;;;;;;;12.27;10.50;;;19.30;99.90;;;;;;4990216;28;20490;-79
2023/09/09 01:28:25;;;;;;;14.98;11.25;;;19.20;99.90;;;;;;4989205;28;20290;-79
2023/09/09 01:30:50;;;;;;;12.57;9.88;;;19.20;99.90;;;;;;4987690;28;20042;-79
2023/09/09 01:33:17;;;;;;;11.07;9.88;;;19.20;99.90;;;;;;4990402;28;20513;-79
2023/09/09 01:35:43;;;;;;;11.68;10.55;;;19.20;99.90;;;;;;4990397;28;20034;-78
2023/09/09 01:38:09;;;;;;;13.90;11.77;;;19.20;99.90;;;;;;4990272;28;20038;-78
2023/09/09 01:40:34;;;;;;;12.82;11.52;;;19.20;99.90;;;;;;4989097;28;20093;-78
2023/09/09 01:43:00;;;;;;;12.50;10.88;;;19.20;99.90;;;;;;4990470;28;20085;-79
2023/09/09 01:45:25;;;;;;;12.48;10.75;;;19.10;99.90;;;;;;4989315;28;20046;-78
2023/09/09 01:47:51;;;;;;;13.75;11.30;;;19.10;99.90;;;;;;4973209;28;20457;-79
2023/09/09 01:50:16;;;;;;;13.50;11.23;;;19.10;99.90;;;;;;4990893;28;20473;-79
2023/09/09 01:52:42;;;;;;;13.32;11.93;;;19.10;99.90;;;;;;4990620;28;20050;-79
2023/09/09 01:55:07;;;;;;;12.90;11.48;;;19.00;99.90;;;;;;4991089;28;20042;-79
2023/09/09 01:57:34;;;;;;;12.98;11.48;;;19.00;99.90;;;;;;4989200;28;20085;-79
2023/09/09 02:00:00;;;;;;;12.95;11.55;;;19.00;99.90;;;;;;4989653;28;20496;-79
2023/09/09 02:02:25;;;;;;;12.80;10.90;;;19.00;99.90;;;;;;4989618;28;20058;-79
2023/09/09 02:04:51;;;;;;;14.43;12.10;;;19.00;99.90;;;;;;4989489;28;20121;-79
2023/09/09 02:07:16;;;;;;;22.55;12.10;;;19.00;99.90;;;;;;4990866;28;20426;-78
2023/09/09 02:09:42;;;;;;;15.13;12.35;;;18.90;99.90;;;;;;4988164;28;20038;-79
2023/09/09 02:12:07;;;;;;;14.20;12.00;;;18.90;99.90;;;;;;4988470;28;20043;-79
2023/09/09 02:14:33;;;;;;;14.60;12.70;;;19.00;99.90;;;;;;4972507;28;20038;-79
2023/09/09 02:16:59;;;;;;;12.20;9.32;;;18.90;99.90;;;;;;4973867;28;20042;-79
2023/09/09 02:19:25;;;;;;;12.32;9.45;;;18.90;99.90;;;;;;4988275;28;20041;-79
2023/09/09 02:21:50;;;;;;;11.70;10.38;;;18.80;99.90;;;;;;4988790;28;20444;-79
2023/09/09 02:24:16;;;;;;;13.93;10.82;;;18.80;99.90;;;;;;4988537;28;20049;-79
2023/09/09 02:26:42;;;;;;;13.10;10.88;;;18.80;99.90;;;;;;4989562;28;20481;-79
2023/09/09 02:29:07;;;;;;;14.10;11.80;;;18.70;99.90;;;;;;4988974;28;20042;-79
2023/09/09 02:31:33;;;;;;;14.02;12.02;;;18.70;99.90;;;;;;4989056;28;20050;-79
2023/09/09 02:33:58;;;;;;;12.48;11.15;;;18.70;99.90;;;;;;4989193;28;20053;-79
2023/09/09 02:36:24;;;;;;;12.68;11.45;;;18.60;99.90;;;;;;4987470;28;20489;-79
2023/09/09 02:38:49;;;;;;;12.10;10.90;;;18.60;99.90;;;;;;4987984;28;20039;-79
2023/09/09 02:41:15;;;;;;;12.10;10.77;;;18.60;99.90;;;;;;4989810;28;20046;-78
2023/09/09 02:43:41;;;;;;;12.82;11.63;;;18.60;99.90;;;;;;4986941;28;20052;-79
2023/09/09 02:46:06;;;;;;;13.77;12.10;;;18.50;99.90;;;;;;4989453;28;20125;-79
2023/09/09 02:48:32;;;;;;;15.82;13.43;;;18.50;99.90;;;;;;4987794;28;20054;-79
2023/09/09 02:50:57;;;;;;;17.25;14.85;;;18.50;99.90;;;;;;4973422;28;20054;-79
2023/09/09 02:53:23;;;;;;;14.63;13.10;;;18.50;99.90;;;;;;4990357;28;20049;-79
2023/09/09 02:55:48;;;;;;;15.90;13.48;;;18.40;99.90;;;;;;4977849;28;20043;-79
2023/09/09 02:58:14;;;;;;;16.05;13.05;;;18.40;99.90;;;;;;4989364;28;20035;-79
2023/09/09 03:00:40;;;;;;;13.70;12.30;;;18.40;99.90;;;;;;4988806;28;20457;-79
2023/09/09 03:03:06;;;;;;;18.77;13.82;;;18.40;99.90;;;;;;4987626;28;20042;-79
2023/09/09 03:05:35;;;;;;;13.55;12.15;;;18.40;99.90;;;;;;4988416;28;20165;-79
2023/09/09 03:08:03;;;;;;;15.52;13.23;;;18.40;99.90;;;;;;4989359;28;20137;-79
2023/09/09 03:10:28;;;;;;;12.48;11.18;;;18.30;99.90;;;;;;4989106;28;20053;-79
2023/09/09 03:12:56;;;;;;;19.58;11.55;;;18.40;99.90;;;;;;4986387;28;20042;-80
2023/09/09 03:15:22;;;;;;;12.75;11.43;;;18.30;99.90;;;;;;4991625;28;20050;-79
2023/09/09 03:17:49;;;;;;;14.02;11.90;;;18.30;99.90;;;;;;4991651;28;20058;-79
2023/09/09 03:20:14;;;;;;;16.65;13.13;;;18.40;99.90;;;;;;4992753;28;20038;-79
2023/09/09 03:22:40;;;;;;;16.00;12.73;;;18.30;99.90;;;;;;4992925;28;20450;-79
2023/09/09 03:25:07;;;;;;;14.43;12.43;;;18.30;99.90;;;;;;4993335;28;20041;-79
2023/09/09 03:27:33;;;;;;;14.07;12.35;;;18.30;99.90;;;;;;4989872;28;20084;-79
2023/09/09 03:29:59;;;;;;;13.35;11.68;;;18.20;99.90;;;;;;4992769;28;20035;-79
2023/09/09 03:32:25;;;;;;;12.38;11.10;;;18.20;99.90;;;;;;4991815;28;20061;-79
2023/09/09 03:34:52;;;;;;;12.10;10.65;;;18.20;99.90;;;;;;4993664;28;20414;-79
2023/09/09 03:37:18;;;;;;;11.77;10.57;;;18.20;99.90;;;;;;4990643;28;20082;-79
2023/09/09 03:39:43;;;;;;;11.05;9.95;;;18.20;99.90;;;;;;4973696;28;20170;-79
2023/09/09 03:42:09;;;;;;;12.43;10.45;;;18.10;99.90;;;;;;4993523;28;20050;-79
2023/09/09 03:44:34;;;;;;;11.05;9.80;;;18.10;99.90;;;;;;4992809;28;20030;-79
2023/09/09 03:47:00;;;;;;;11.68;10.48;;;18.10;99.90;;;;;;4975191;28;20046;-79
2023/09/09 03:49:25;;;;;;;13.48;9.75;;;18.00;99.90;;;;;;4993018;28;20060;-79
2023/09/09 03:51:51;;;;;;;11.52;10.25;;;18.00;99.90;;;;;;4992289;28;20034;-79
2023/09/09 03:54:17;;;;;;;12.25;10.98;;;18.00;99.90;;;;;;4991683;28;20046;-79
2023/09/09 03:56:43;;;;;;;14.77;11.98;;;18.00;99.90;;;;;;4992255;28;20062;-79
2023/09/09 03:59:08;;;;;;;14.35;12.52;;;17.90;99.90;;;;;;4992966;28;20162;-79
2023/09/09 04:01:35;;;;;;;15.27;13.63;;;17.90;99.90;;;;;;4994294;28;20067;-80
2023/09/09 04:04:01;;;;;;;16.05;13.13;;;17.90;99.90;;;;;;4996212;28;20038;-79
2023/09/09 04:06:27;;;;;;;16.63;14.93;;;17.90;99.90;;;;;;4994368;28;20088;-79
2023/09/09 04:08:56;;;;;;;16.63;14.50;;;17.90;99.90;;;;;;4995031;28;20484;-79
2023/09/09 04:11:22;;;;;;;15.82;14.13;;;17.90;99.90;;;;;;4995029;28;20047;-79
2023/09/09 04:13:47;;;;;;;16.63;14.63;;;17.90;99.90;;;;;;4992535;28;20045;-79
2023/09/09 04:16:13;;;;;;;19.88;14.93;;;17.80;99.90;;;;;;4995921;28;20416;-79
2023/09/09 04:18:38;;;;;;;16.67;14.85;;;17.80;99.90;;;;;;4979173;28;20468;-79
2023/09/09 04:21:04;;;;;;;16.48;14.77;;;17.80;99.90;;;;;;4995286;28;20065;-79
2023/09/09 04:23:29;;;;;;;15.90;14.20;;;17.80;99.90;;;;;;4996103;28;20034;-79
2023/09/09 04:25:55;;;;;;;16.10;14.45;;;17.80;99.90;;;;;;4994194;28;20505;-79
2023/09/09 04:28:20;;;;;;;14.90;13.27;;;17.80;99.90;;;;;;4980811;28;20044;-79
2023/09/09 04:30:46;;;;;;;17.70;13.95;;;17.80;99.90;;;;;;4992755;28;20038;-78
2023/09/09 04:33:11;;;;;;;16.52;14.27;;;17.60;99.90;;;;;;4992756;28;20046;-79
2023/09/09 04:35:39;;;;;;;16.40;14.57;;;17.60;99.90;;;;;;4989058;28;20053;-78
2023/09/09 04:38:06;;;;;;;17.35;14.73;;;17.50;99.90;;;;;;4990670;28;20054;-79
2023/09/09 04:40:32;;;;;;;16.42;14.63;;;17.50;99.90;;;;;;5008425;28;20053;-78
2023/09/09 04:42:57;;;;;;;14.27;12.88;;;17.50;99.90;;;;;;4974460;28;20035;-78
2023/09/09 04:45:23;;;;;;;15.95;14.07;;;17.50;99.90;;;;;;4991173;28;20065;-79
2023/09/09 04:47:50;;;;;;;16.17;14.48;;;17.40;99.90;;;;;;4990324;28;20045;-79
2023/09/09 04:50:16;;;;;;;17.42;15.50;;;17.40;99.90;;;;;;4991396;28;20038;-79
2023/09/09 04:52:42;;;;;;;17.55;15.65;;;17.40;99.90;;;;;;4991507;28;20030;-79
2023/09/09 04:55:07;;;;;;;19.23;16.40;;;17.40;99.90;;;;;;4989362;28;20130;-79
2023/09/09 04:57:33;;;;;;;20.17;16.83;;;17.50;99.90;;;;;;4991174;28;20495;-79
2023/09/09 04:59:58;;;;;;;17.27;14.57;;;17.50;99.90;;;;;;4991061;28;20034;-79
2023/09/09 05:02:24;;;;;;;19.00;14.75;;;17.50;99.90;;;;;;4991062;28;20045;-79
2023/09/09 05:04:50;;;;;;;19.10;15.73;;;17.40;99.90;;;;;;4990008;28;20524;-79
2023/09/09 05:07:17;;;;;;;18.77;15.40;;;17.40;99.90;;;;;;4990394;28;20042;-79
2023/09/09 05:09:42;;;;;;;19.20;16.15;;;17.40;99.90;;;;;;4990567;28;20046;-79
2023/09/09 05:12:08;;;;;;;17.90;14.90;;;17.50;99.90;;;;;;4986402;28;20510;-79
2023/09/09 05:14:33;;;;;;;18.00;16.05;;;17.50;99.90;;;;;;4990036;28;20038;-79
2023/09/09 05:16:59;;;;;;;19.02;17.02;;;17.40;99.90;;;;;;4974558;28;20529;-79
2023/09/09 05:19:24;;;;;;;24.17;17.13;;;17.50;99.90;;;;;;4989705;28;20042;-79
2023/09/09 05:21:50;;;;;;;18.83;16.70;;;17.50;99.90;;;;;;4990542;28;20442;-79
2023/09/09 05:24:15;;;;;;;18.92;16.80;;;17.50;99.90;;;;;;4987320;28;20428;-79
2023/09/09 05:26:41;;;;;;;20.38;17.15;;;17.60;99.90;;;;;;4988461;28;20447;-79
2023/09/09 05:29:06;;;;;;;19.65;16.50;;;17.60;99.90;;;;;;4990191;28;20097;-79
2023/09/09 05:31:32;;;;;;;17.85;15.95;;;17.50;99.90;;;;;;4979358;28;20097;-79
2023/09/09 05:33:58;;;;;;;21.20;16.95;;;17.50;99.90;;;;;;4989021;28;20049;-78
2023/09/09 05:36:24;;;;;;;18.90;15.93;;;17.50;99.90;;;;;;4982954;28;20046;-79
2023/09/09 05:38:49;;;;;;;19.42;17.42;;;17.60;99.90;;;;;;4985594;28;20061;-79
2023/09/09 05:41:15;;;;;;;17.35;15.55;;;17.60;99.90;;;;;;4983946;28;20125;-79
2023/09/09 05:43:40;;;;;;;17.05;15.25;;;17.60;99.90;;;;;;4988116;28;20502;-79
2023/09/09 05:46:06;;;;;;;16.63;14.77;;;17.70;99.90;;;;;;4985116;28;20148;-79
2023/09/09 05:48:32;;;;;;;20.05;17.95;;;17.80;99.90;;;;;;4988912;28;20045;-79
2023/09/09 05:50:58;;;;;;;16.92;15.13;;;17.80;99.90;;;;;;4991572;28;20044;-79
2023/09/09 05:53:23;;;;;;;17.13;15.32;;;17.90;99.90;;;;;;4989944;28;20126;-79
2023/09/09 05:55:49;;;;;;;18.58;16.60;;;18.00;99.90;;;;;;4988241;28;20577;-79
2023/09/09 05:58:15;;;;;;;18.30;16.40;;;18.00;99.90;;;;;;4990271;28;20038;-79
2023/09/09 06:00:40;;;;;;;20.75;18.55;;;18.10;99.90;;;;;;4988719;28;20244;-79
2023/09/09 06:03:06;;;;;;;17.33;15.40;;;18.20;99.90;;;;;;4987225;28;20030;-79
2023/09/09 06:05:31;;;;;;;18.58;16.02;;;18.20;99.90;;;;;;4989543;28;20030;-79
2023/09/09 06:07:57;;;;;;;19.20;16.10;;;18.20;99.90;;;;;;4989630;28;20034;-78
2023/09/09 06:10:23;;;;;;;21.67;17.05;;;18.30;99.90;;;;;;4989724;28;20117;-79
2023/09/09 06:12:49;;;;;;;21.48;17.73;;;18.30;99.90;;;;;;4992359;28;20382;-78
2023/09/09 06:15:15;;;;;;;21.00;17.52;;;18.40;99.90;;;;;;4990576;28;20034;-79
2023/09/09 06:17:41;;;;;;;23.95;20.50;;;18.40;99.90;;;;;;4986187;28;20058;-79
2023/09/09 06:20:08;;;;;;;26.77;22.80;;;18.50;99.90;;;;;;4989146;28;20050;-79
2023/09/09 06:22:34;;;;;;;21.63;18.70;;;18.50;99.90;;;;;;4986114;28;20034;-78
2023/09/09 06:25:00;;;;;;;21.48;17.85;;;18.60;99.90;;;;;;4988507;28;20038;-79
2023/09/09 06:27:26;;;;;;;23.58;21.08;;;18.70;99.90;;;;;;4989432;28;20498;-79
2023/09/09 06:29:51;;;;;;;21.70;19.45;;;18.80;99.90;;;;;;4986848;28;20064;-79
2023/09/09 06:32:17;;;;;;;25.50;22.45;;;18.90;99.90;;;;;;4988044;28;20121;-79
2023/09/09 06:34:42;;;;;;;23.25;20.77;;;19.00;99.90;;;;;;4989236;28;20065;-78
2023/09/09 06:37:09;;;;;;;25.35;20.77;;;19.10;99.90;;;;;;4988181;28;20097;-79
2023/09/09 06:39:35;;;;;;;29.83;24.55;;;19.10;99.90;;;;;;4971429;28;20050;-79
2023/09/09 06:42:00;;;;;;;26.23;22.60;;;19.20;99.90;;;;;;4973231;28;20419;-79
2023/09/09 06:44:26;;;;;;;26.48;22.55;;;19.30;99.90;;;;;;4988216;28;20428;-79
2023/09/09 06:46:51;;;;;;;25.45;22.63;;;19.40;99.90;;;;;;4990148;28;20026;-79
2023/09/09 06:49:17;;;;;;;25.73;22.92;;;19.40;99.90;;;;;;4993556;28;20421;-78
2023/09/09 06:51:42;;;;;;;24.95;21.58;;;19.60;99.90;;;;;;4994967;28;20049;-79
2023/09/09 06:54:08;;;;;;;28.17;23.40;;;19.60;99.90;;;;;;4994592;28;20041;-79
2023/09/09 06:56:33;;;;;;;30.55;24.55;;;19.70;99.90;;;;;;4994000;28;20088;-79
2023/09/09 06:58:59;;;;;;;28.10;24.02;;;19.80;99.90;;;;;;4991564;28;20070;-79
2023/09/09 07:01:24;;;;;;;26.38;23.50;;;20.00;99.90;;;;;;4985348;28;20434;-79
2023/09/09 07:03:50;;;;;;;28.85;23.48;;;20.10;99.90;;;;;;4988624;28;20053;-79
2023/09/09 07:06:16;;;;;;;27.15;24.33;;;20.20;99.90;;;;;;4990342;28;20038;-80
2023/09/09 07:08:43;;;;;;;28.75;23.08;;;20.30;99.90;;;;;;4990185;28;20042;-80
2023/09/09 07:11:08;;;;;;;27.77;23.95;;;20.50;99.90;;;;;;4994442;28;20053;-79
2023/09/09 07:13:34;;;;;;;27.35;24.33;;;20.60;99.90;;;;;;4995652;28;20038;-80
2023/09/09 07:15:59;;;;;;;25.20;22.50;;;20.70;99.90;;;;;;4995418;28;20057;-80
2023/09/09 07:18:25;;;;;;;26.08;22.90;;;20.80;99.90;;;;;;4994252;28;20050;-79
2023/09/09 07:20:51;;;;;;;27.25;24.00;;;20.90;99.90;;;;;;4989114;28;20517;-79
2023/09/09 07:23:18;;;;;;;26.45;23.50;;;21.10;99.90;;;;;;4995937;28;20046;-80
2023/09/09 07:25:44;;;;;;;29.48;25.55;;;21.20;99.90;;;;;;4979304;28;20405;-79
2023/09/09 07:28:11;;;;;;;27.15;24.00;;;21.30;99.90;;;;;;4995511;28;20100;-79
2023/09/09 07:30:37;;;;;;;30.23;25.42;;;21.40;99.90;;;;;;4995372;28;20038;-80
2023/09/09 07:33:03;;;;;;;26.75;23.85;;;21.50;99.90;;;;;;4996071;28;20046;-80
2023/09/09 07:35:29;;;;;;;31.45;27.33;;;21.60;99.90;;;;;;4995478;28;20096;-80
2023/09/09 07:37:54;;;;;;;28.27;25.13;;;21.70;99.90;;;;;;4992546;28;20057;-80
2023/09/09 07:40:20;;;;;;;30.50;27.38;;;21.80;99.90;;;;;;4990001;28;20042;-80
2023/09/09 07:42:45;;;;;;;32.28;27.40;;;21.90;99.90;;;;;;4992528;28;20088;-80
2023/09/09 07:45:11;;;;;;;32.35;26.77;;;22.00;99.90;;;;;;4988145;28;20165;-80
2023/09/09 07:47:36;;;;;;;31.55;28.27;;;22.10;99.90;;;;;;4991586;28;20034;-80
2023/09/09 07:50:02;;;;;;;31.88;28.67;;;22.20;99.90;;;;;;4990559;28;20054;-80
2023/09/09 07:52:28;;;;;;;31.55;28.15;;;22.20;99.90;;;;;;4987110;28;20098;-80
2023/09/09 07:54:54;;;;;;;30.20;27.05;;;22.30;99.90;;;;;;4990771;28;20395;-80
2023/09/09 07:57:20;;;;;;;31.35;28.00;;;22.30;99.90;;;;;;5011947;28;20084;-80
2023/09/09 07:59:47;;;;;;;32.58;26.77;;;22.40;99.90;;;;;;4990500;28;20049;-80
2023/09/09 08:02:13;;;;;;;30.10;26.77;;;22.50;99.90;;;;;;4990967;28;20094;-80
2023/09/09 08:04:39;;;;;;;30.85;26.42;;;22.60;99.90;;;;;;4988496;28;20035;-80
2023/09/09 08:07:04;;;;;;;30.90;27.00;;;22.70;99.90;;;;;;4990705;28;20490;-82
2023/09/09 08:09:31;;;;;;;29.58;26.35;;;22.80;99.90;;;;;;4980238;28;20038;-80
2023/09/09 08:11:56;;;;;;;28.88;25.67;;;22.90;99.90;;;;;;4977423;28;20125;-80
2023/09/09 08:14:22;;;;;;;27.63;24.27;;;23.10;99.90;;;;;;4986906;28;20086;-80
2023/09/09 08:16:47;;;;;;;30.88;26.70;;;23.20;99.90;;;;;;4989705;28;20090;-80
2023/09/09 08:19:13;;;;;;;29.13;26.13;;;23.30;99.90;;;;;;4991881;28;20034;-80
2023/09/09 08:21:38;;;;;;;29.02;25.60;;;23.30;99.90;;;;;;4988826;28;20044;-81
2023/09/09 08:24:04;;;;;;;31.20;25.33;;;23.30;99.90;;;;;;4990887;28;20034;-80
2023/09/09 08:26:30;;;;;;;30.33;27.15;;;23.40;99.90;;;;;;4991270;28;20040;-80
2023/09/09 08:28:55;;;;;;;30.92;25.23;;;23.40;99.90;;;;;;4995453;28;20066;-82
2023/09/09 08:31:21;;;;;;;30.48;26.67;;;23.50;99.90;;;;;;4996142;28;20133;-79
2023/09/09 08:33:47;;;;;;;29.48;26.38;;;23.50;99.90;;;;;;4994338;28;20494;-81
2023/09/09 08:36:12;;;;;;;28.95;25.95;;;23.50;99.90;;;;;;4993757;28;20055;-80
2023/09/09 08:38:38;;;;;;;30.77;26.27;;;23.50;99.90;;;;;;4993176;28;20035;-80
2023/09/09 08:41:06;;;;;;;28.58;25.70;;;23.60;99.90;;;;;;4991864;28;20077;-80
2023/09/09 08:43:53;;;;;;;28.15;24.13;;;23.60;99.90;;;;;;4992695;28;20038;-80
2023/09/09 08:46:20;;;;;;;26.33;23.30;;;23.70;99.90;;;;;;4975626;28;20045;-80
2023/09/09 08:48:49;;;;;;;25.25;22.58;;;23.70;99.90;;;;;;5011676;28;20038;-80
2023/09/09 08:51:17;;;;;;;26.95;23.73;;;23.80;99.90;;;;;;4993796;28;20038;-80
2023/09/09 08:53:44;;;;;;;26.08;23.27;;;23.90;99.90;;;;;;4993180;28;20498;-79
2023/09/09 08:56:12;;;;;;;26.55;23.77;;;24.00;99.90;;;;;;4991961;28;20413;-82
2023/09/09 08:58:37;;;;;;;25.50;22.80;;;24.00;99.90;;;;;;4993625;28;20533;-81
2023/09/09 09:01:03;;;;;;;25.02;22.33;;;24.10;99.90;;;;;;4992118;28;20173;-80
2023/09/09 09:03:32;;;;;;;25.25;22.55;;;24.10;99.90;;;;;;4993191;28;20555;-79
2023/09/09 09:05:58;;;;;;;25.02;21.95;;;24.10;99.90;;;;;;4993362;28;20100;-80
2023/09/09 09:08:24;;;;;;;25.52;22.73;;;24.10;99.90;;;;;;4993515;28;20038;-80
2023/09/09 09:10:49;;;;;;;25.92;22.67;;;24.20;99.90;;;;;;4991537;28;20045;-81
2023/09/09 09:13:15;;;;;;;26.02;22.45;;;24.20;99.90;;;;;;4986548;28;20077;-80
2023/09/09 09:15:44;;;;;;;23.83;21.25;;;24.40;99.90;;;;;;4975138;28;20491;-80
2023/09/09 09:18:09;;;;;;;24.05;21.63;;;24.40;99.90;;;;;;4985425;28;20046;-80
2023/09/09 09:20:36;;;;;;;24.52;21.15;;;24.50;99.90;;;;;;4986972;28;20050;-79
2023/09/09 09:23:05;;;;;;;23.80;21.33;;;24.50;99.90;;;;;;4989208;28;20042;-80
2023/09/09 09:25:44;;;;;;;25.60;22.90;;;24.50;99.90;;;;;;4989142;28;20038;-80
2023/09/09 09:28:12;;;;;;;25.95;23.15;;;24.50;99.90;;;;;;4991342;28;20030;-80
2023/09/09 09:30:37;;;;;;;25.55;22.85;;;24.60;99.90;;;;;;4983258;28;20035;-80
2023/09/09 09:33:03;;;;;;;25.80;23.00;;;24.70;99.90;;;;;;4990503;28;20053;-79
2023/09/09 09:35:31;;;;;;;25.45;22.73;;;24.70;99.90;;;;;;4989684;28;20065;-79
2023/09/09 09:38:02;;;;;;;25.83;23.13;;;24.70;99.90;;;;;;4991642;28;20050;-79
2023/09/09 09:40:30;;;;;;;25.77;23.17;;;24.80;99.90;;;;;;4990748;28;20034;-79
2023/09/09 09:42:56;;;;;;;29.60;25.58;;;24.80;99.90;;;;;;4990520;28;20427;-78
2023/09/09 09:45:26;;;;;;;26.40;23.45;;;24.80;99.90;;;;;;4969165;28;20034;-78
2023/09/09 09:47:53;;;;;;;28.15;23.65;;;24.90;99.90;;;;;;4988564;28;20109;-79
2023/09/09 09:50:28;;;;;;;30.02;25.23;;;25.00;99.90;;;;;;4989674;28;20141;-79
2023/09/09 09:53:02;;;;;;;27.67;24.77;;;25.00;99.90;;;;;;4989941;28;20117;-78
2023/09/09 09:55:29;;;;;;;28.65;25.70;;;25.10;99.90;;;;;;4988983;28;20069;-79
2023/09/09 09:57:57;;;;;;;29.50;25.20;;;25.10;99.90;;;;;;4991514;28;20089;-79
2023/09/09 10:00:25;;;;;;;28.80;25.70;;;25.10;99.90;;;;;;4987990;28;20046;-78
2023/09/09 10:02:55;;;;;;;31.67;27.30;;;25.20;99.90;;;;;;4989014;28;20039;-79
2023/09/09 10:05:23;;;;;;;34.63;26.95;;;25.30;99.90;;;;;;4989483;28;20038;-79
2023/09/09 10:08:01;;;;;;;30.63;27.08;;;25.30;99.90;;;;;;4989454;28;20108;-79
2023/09/09 10:10:28;;;;;;;28.75;25.38;;;25.40;99.90;;;;;;4988262;28;20109;-80
2023/09/09 10:13:04;;;;;;;30.58;26.48;;;25.40;99.90;;;;;;4989578;28;20158;-78
2023/09/09 10:15:32;;;;;;;29.00;26.00;;;25.50;99.90;;;;;;4989560;28;20050;-78
2023/09/09 10:17:59;;;;;;;32.20;27.52;;;25.50;99.90;;;;;;4987025;28;20066;-78
2023/09/09 10:20:26;;;;;;;29.38;26.30;;;25.50;99.90;;;;;;4990733;28;20042;-79
2023/09/09 10:22:59;;;;;;;32.28;27.50;;;25.50;99.90;;;;;;4986834;28;20105;-79
2023/09/09 10:25:26;;;;;;;28.45;25.52;;;25.60;99.90;;;;;;4986093;28;20035;-78
2023/09/09 10:27:52;;;;;;;28.55;25.45;;;25.70;99.90;;;;;;4988594;28;20103;-78
2023/09/09 10:30:19;;;;;;;27.65;24.65;;;25.80;99.90;;;;;;4988212;28;20122;-78
2023/09/09 10:32:46;;;;;;;28.48;25.48;;;25.90;99.90;;;;;;4980675;28;20043;-79
2023/09/09 10:35:14;;;;;;;31.88;27.55;;;26.00;99.90;;;;;;4994221;28;20037;-78
2023/09/09 10:37:40;;;;;;;29.02;26.02;;;26.00;99.90;;;;;;4984067;28;20034;-79
2023/09/09 10:40:07;;;;;;;28.25;25.25;;;26.10;99.90;;;;;;4967068;28;20042;-79
2023/09/09 10:42:36;;;;;;;30.20;27.17;;;26.20;99.90;;;;;;4987421;28;20448;-79
2023/09/09 10:45:25;;;;;;;29.80;26.48;;;26.10;99.90;;;;;;5002435;28;20053;-79
2023/09/09 10:47:53;;;;;;;28.02;25.00;;;26.20;99.90;;;;;;4990074;28;20065;-78
2023/09/09 10:50:19;;;;;;;29.38;26.05;;;26.20;99.90;;;;;;4990157;28;20031;-77
2023/09/09 10:52:45;;;;;;;31.50;28.30;;;26.30;99.90;;;;;;4989040;28;20038;-79
2023/09/09 10:55:14;;;;;;;26.67;23.90;;;26.30;99.90;;;;;;4990271;28;20080;-78
2023/09/09 10:57:40;;;;;;;26.33;23.55;;;26.40;99.90;;;;;;4990482;28;20042;-78
2023/09/09 11:00:09;;;;;;;24.90;22.08;;;26.50;99.90;;;;;;4988024;28;20039;-79
2023/09/09 11:02:47;;;;;;;23.77;21.05;;;26.50;99.90;;;;;;4989605;28;20046;-78
2023/09/09 11:05:14;;;;;;;24.05;21.58;;;26.50;99.90;;;;;;4988286;28;20041;-78
2023/09/09 11:07:41;;;;;;;23.50;21.10;;;26.60;99.90;;;;;;4982202;28;20117;-78
2023/09/09 11:10:08;;;;;;;23.48;20.83;;;26.70;99.90;;;;;;4989239;28;20089;-79
2023/09/09 11:12:33;;;;;;;20.70;18.50;;;26.80;99.90;;;;;;4972266;28;20046;-78
2023/09/09 11:15:09;;;;;;;16.90;15.20;;;26.90;99.90;;;;;;4990091;28;20418;-78
2023/09/09 11:17:36;;;;;;;22.42;18.58;;;26.90;99.90;;;;;;4988861;28;20039;-78
2023/09/09 11:20:03;;;;;;;18.90;16.27;;;27.10;99.90;;;;;;4988622;28;20042;-78
2023/09/09 11:22:29;;;;;;;17.23;13.90;;;27.10;99.90;;;;;;4989683;28;20039;-78
2023/09/09 11:24:57;;;;;;;16.92;14.10;;;27.20;99.90;;;;;;5001961;28;20117;-78
2023/09/09 11:27:23;;;;;;;17.20;14.90;;;27.10;99.90;;;;;;4988454;28;20069;-78
2023/09/09 11:29:53;;;;;;;17.10;15.10;;;27.20;99.90;;;;;;4991324;28;20482;-78
2023/09/09 11:32:26;;;;;;;16.92;15.20;;;27.30;99.90;;;;;;4970238;28;20043;-79
2023/09/09 11:34:56;;;;;;;;;;;27.30;99.90;;;;;;4988374;28;20054;-79
2023/09/09 11:37:25;;;;;;;17.58;15.60;;;27.40;99.90;;;;;;4989949;28;20328;-79
2023/09/09 11:39:54;;;;;;;17.02;14.02;;;27.50;99.90;;;;;;4967851;28;20042;-79
2023/09/09 11:42:23;;;;;;;15.90;13.30;;;27.60;99.90;;;;;;4973216;28;20042;-78
2023/09/09 11:44:49;;;;;;;17.75;13.30;;;27.80;99.90;;;;;;4990066;28;20080;-79
2023/09/09 11:47:16;;;;;;;16.00;13.48;;;27.90;99.90;;;;;;4988969;28;20042;-79
2023/09/09 11:49:44;;;;;;;17.30;14.35;;;27.90;99.90;;;;;;4990163;28;20034;-79
2023/09/09 11:52:10;;;;;;;14.18;12.68;;;27.90;99.90;;;;;;4989763;28;20418;-79
2023/09/09 11:54:36;;;;;;;15.35;13.70;;;28.10;99.90;;;;;;4992673;28;20038;-79
2023/09/09 11:57:04;;;;;;;15.55;14.00;;;28.10;99.90;;;;;;4993010;28;20039;-80
2023/09/09 11:59:29;;;;;;;14.15;11.95;;;28.10;99.90;;;;;;4993331;28;20497;-79
2023/09/09 12:01:55;;;;;;;14.93;13.20;;;28.20;99.90;;;;;;4994462;28;20121;-79
2023/09/09 12:04:20;;;;;;;12.88;11.50;;;28.20;99.90;;;;;;4993979;28;20394;-80
2023/09/09 12:06:50;;;;;;;11.43;10.13;;;28.30;99.90;;;;;;4992556;28;20442;-79
2023/09/09 12:09:17;;;;;;;13.75;12.32;;;28.50;99.90;;;;;;4993572;28;20101;-79
2023/09/09 12:11:43;;;;;;;13.23;11.88;;;28.60;99.90;;;;;;4995185;28;20066;-78
2023/09/09 12:14:11;;;;;;;14.38;12.88;;;28.80;99.90;;;;;;4973803;28;20410;-79
2023/09/09 12:16:38;;;;;;;12.57;11.30;;;28.80;99.90;;;;;;4993911;28;20066;-80
2023/09/09 12:19:04;;;;;;;16.45;12.73;;;28.90;99.90;;;;;;4994606;28;20045;-80
2023/09/09 12:21:29;;;;;;;13.77;11.23;;;28.90;99.90;;;;;;4992304;28;20042;-79
2023/09/09 12:24:00;;;;;;;15.68;13.82;;;28.90;99.90;;;;;;4993371;28;20030;-79